Time;durP1;ratioP1;P1;durP2;ratioP2;P2;SDS_P1;SDS_P2;PMS_P1;PMS_P2;Temp;Humidity;BMP_temperature;BMP_pressure;BME280_temperature;BME280_humidity;BME280_pressure;Samples;Min_cycle;Max_cycle;Signal;HPM_P1;HPM_P2
2023/08/05 00:00:10;;;;;;;10.57;7.65;;;;;;;21.62;100.00;100250.25;10369362;28;20105;-73
2023/08/05 00:05:12;;;;;;;16.20;7.47;;;;;;;20.33;100.00;100037.41;10370843;28;20102;-73
2023/08/05 00:10:12;;;;;;;8.38;7.57;;;;;;;20.94;100.00;100133.09;10369028;28;20046;-73
2023/08/05 00:15:13;;;;;;;10.98;6.97;;;;;;;20.02;100.00;99974.78;10369383;28;20038;-73
2023/08/05 00:20:14;;;;;;;24.67;7.45;;;;;;;21.01;100.00;100122.16;10370389;28;20061;-73
2023/08/05 00:25:15;;;;;;;9.38;7.00;;;;;;;21.65;100.00;100254.34;10368825;28;20586;-73
2023/08/05 00:30:16;;;;;;;10.48;6.63;;;;;;;20.43;100.00;100069.16;10370086;28;20041;-74
2023/08/05 00:35:17;;;;;;;13.15;7.65;;;;;;;20.80;100.00;100123.66;10368656;28;20038;-73
2023/08/05 00:40:18;;;;;;;13.10;7.07;;;;;;;21.45;100.00;100224.25;10369278;28;20500;-73
2023/08/05 00:45:19;;;;;;;11.75;6.95;;;;;;;21.08;100.00;100176.00;10367714;28;20130;-73
2023/08/05 00:50:22;;;;;;;11.35;7.32;;;;;;;20.61;100.00;100128.41;10368106;28;20054;-73
2023/08/05 00:55:22;;;;;;;14.27;7.82;;;;;;;21.61;100.00;100278.38;10368543;28;20042;-73
2023/08/05 01:00:23;;;;;;;12.15;8.68;;;;;;;21.25;100.00;100203.88;10367894;28;20087;-73
2023/08/05 01:05:25;;;;;;;10.68;8.05;;;;;;;21.13;100.00;100187.72;10367570;28;20038;-73
2023/08/05 01:10:26;;;;;;;10.60;8.27;;;;;;;21.06;100.00;100172.72;10368255;28;20042;-73
2023/08/05 01:15:27;;;;;;;15.52;7.63;;;;;;;20.90;100.00;100160.81;10367925;28;20037;-73
2023/08/05 01:20:33;;;;;;;13.80;8.52;;;;;;;21.39;100.00;100248.50;10367012;28;20061;-73
2023/08/05 01:25:35;;;;;;;12.65;8.40;;;;;;;21.62;100.00;100285.41;10366395;28;20065;-73
2023/08/05 01:30:37;;;;;;;16.65;7.72;;;;;;;21.16;100.00;100251.25;10367590;28;20486;-73
2023/08/05 01:35:38;;;;;;;37.28;8.90;;;;;;;20.26;100.00;100126.56;10366053;28;20042;-73
2023/08/05 01:40:39;;;;;;;27.98;8.32;;;;;;;20.46;100.00;100163.97;10368076;28;20428;-73
2023/08/05 01:45:40;;;;;;;11.48;7.95;;;;;;;20.43;100.00;100156.34;10365995;28;20057;-73
2023/08/05 01:50:40;;;;;;;32.65;8.98;;;;;;;20.41;100.00;100146.84;10365835;28;20390;-73
2023/08/05 01:55:41;;;;;;;17.13;8.52;;;;;;;20.71;100.00;100206.06;10366031;28;20068;-73
2023/08/05 02:00:50;;;;;;;38.35;8.43;;;;;;;19.72;100.00;100052.31;10365610;28;20034;-73
2023/08/05 02:05:50;;;;;;;34.25;8.05;;;;;;;20.83;100.00;100243.84;10365449;28;20033;-73
2023/08/05 02:10:51;;;;;;;35.10;9.27;;;;;;;19.97;100.00;100119.44;10365129;28;20045;-74
2023/08/05 02:15:52;;;;;;;11.20;9.02;;;;;;;20.98;100.00;100273.84;10361684;28;20050;-73
2023/08/05 02:20:53;;;;;;;12.40;8.70;;;;;;;19.70;100.00;100051.72;10365214;28;20073;-73
2023/08/05 02:25:53;;;;;;;16.10;8.60;;;;;;;19.84;100.00;100059.34;10365420;28;20090;-73
2023/08/05 02:30:54;;;;;;;32.53;9.00;;;;;;;20.74;100.00;100206.41;10365074;28;20046;-73
2023/08/05 02:36:02;;;;;;;32.58;10.20;;;;;;;20.33;100.00;100129.13;10365018;28;20528;-73
2023/08/05 02:41:07;;;;;;;32.80;9.50;;;;;;;20.34;100.00;100103.81;10366775;28;20046;-74
2023/08/05 02:46:08;;;;;;;19.40;9.32;;;;;;;20.33;100.00;100072.47;10366920;28;20086;-73
2023/08/05 02:51:09;;;;;;;23.92;9.10;;;;;;;20.78;100.00;100047.47;10364296;28;20076;-73
2023/08/05 02:56:09;;;;;;;19.17;8.48;;;;;;;22.64;100.00;100252.97;10364988;28;20042;-74
2023/08/05 03:01:11;;;;;;;14.52;8.18;;;;;;;22.81;100.00;100155.44;10365440;28;20042;-74
2023/08/05 03:06:12;;;;;;;22.67;7.38;;;;;;;23.28;98.58;100117.75;10364725;28;20045;-74
2023/08/05 03:11:12;;;;;;;15.32;8.10;;;;;;;24.42;97.05;100229.59;10366164;28;20049;-74
2023/08/05 03:16:14;;;;;;;13.65;7.32;;;;;;;25.82;94.17;100315.00;10366236;28;20042;-74
2023/08/05 03:21:14;;;;;;;9.32;6.22;;;;;;;26.37;90.45;100253.44;10371136;28;20045;-73
2023/08/05 03:26:15;;;;;;;11.25;6.18;;;;;;;27.41;84.84;100246.56;10387520;28;20497;-74
2023/08/05 03:31:16;;;;;;;8.35;5.80;;;;;;;28.47;79.42;100246.81;10371504;28;20041;-74
2023/08/05 03:36:17;;;;;;;9.85;6.32;;;;;;;28.86;75.86;100200.16;10369951;28;20099;-74
2023/08/05 03:41:18;;;;;;;7.07;6.22;;;;;;;29.49;72.15;100223.63;10370394;28;20048;-74
2023/08/05 03:46:18;;;;;;;17.05;6.75;;;;;;;30.45;70.88;100296.31;10371973;28;20062;-74
2023/08/05 03:51:19;;;;;;;14.60;5.80;;;;;;;31.29;68.16;100326.25;10370092;28;20485;-76
2023/08/05 03:56:22;;;;;;;10.10;5.43;;;;;;;31.74;66.33;100364.00;10371246;28;20048;-74
2023/08/05 04:01:23;;;;;;;;;;;;;;;33.12;64.64;100368.84;10370251;28;20095;-74
2023/08/05 04:06:25;;;;;;;8.90;5.50;;;;;;;31.49;63.91;100204.22;10369068;28;20364;-74
2023/08/05 04:11:26;;;;;;;;;;;;;;;33.94;61.67;100372.72;10370772;28;20046;-75
2023/08/05 04:16:29;;;;;;;9.47;5.73;;;;;;;32.50;60.88;100221.16;10368878;28;19917;-74
2023/08/05 04:21:35;;;;;;;11.77;5.32;;;;;;;33.01;59.84;100346.28;10369095;28;20285;-74
2023/08/05 04:26:36;;;;;;;13.43;5.93;;;;;;;33.10;58.10;100349.06;10369884;28;20501;-74
2023/08/05 04:31:42;;;;;;;12.10;8.63;;;;;;;32.40;57.13;100224.16;10369408;28;20050;-74
2023/08/05 04:36:49;;;;;;;8.95;7.68;;;;;;;32.44;55.64;100244.41;10368489;28;20453;-75
2023/08/05 04:41:50;;;;;;;10.88;7.78;;;;;;;32.61;55.38;100266.50;10369867;28;20049;-75
2023/08/05 04:46:51;;;;;;;10.80;8.23;;;;;;;31.86;55.15;100135.47;10366480;28;20413;-73
2023/08/05 04:51:51;;;;;;;9.68;7.70;;;;;;;32.46;54.76;100236.69;10368164;28;20057;-72
2023/08/05 04:56:52;;;;;;;9.80;5.70;;;;;;;32.75;54.68;100293.88;10367871;28;20085;-73
2023/08/05 05:01:53;;;;;;;12.07;10.73;;;;;;;32.22;55.14;100248.84;10367259;28;20042;-72
2023/08/05 05:06:54;;;;;;;10.55;6.00;;;;;;;32.15;55.57;100325.41;10367341;28;20037;-72
2023/08/05 05:11:55;;;;;;;8.95;6.25;;;;;;;32.11;55.96;100368.38;10367537;28;20071;-72
2023/08/05 05:16:56;;;;;;;16.80;5.25;;;;;;;30.99;56.15;100266.50;10367497;28;20140;-72
2023/08/05 05:21:56;;;;;;;10.07;4.85;;;;;;;30.85;56.93;100300.25;10369069;28;20374;-73
2023/08/05 05:26:57;;;;;;;10.73;4.00;;;;;;;29.54;57.11;100124.22;10367529;28;20095;-72
2023/08/05 05:31:58;;;;;;;6.10;4.75;;;;;;;30.21;57.54;100197.84;10366943;28;20038;-72
2023/08/05 05:36:59;;;;;;;7.07;4.03;;;;;;;30.20;56.92;100193.44;10367419;28;20048;-72
2023/08/05 05:42:00;;;;;;;15.98;4.93;;;;;;;30.59;56.90;100238.78;10368012;28;20053;-72
2023/08/05 05:47:00;;;;;;;12.00;4.70;;;;;;;30.98;55.60;100311.53;10365520;28;20049;-73
2023/08/05 05:52:02;;;;;;;8.82;4.38;;;;;;;30.71;55.54;100234.41;10366289;28;20151;-73
2023/08/05 05:57:02;;;;;;;12.05;4.80;;;;;;;31.03;56.57;100234.63;10365595;28;20402;-73
2023/08/05 06:02:04;;;;;;;5.93;4.40;;;;;;;30.47;55.16;100163.34;10366553;28;20041;-72
2023/08/05 06:07:04;;;;;;;6.80;4.65;;;;;;;30.86;55.20;100222.34;10365852;28;20042;-74
2023/08/05 06:12:09;;;;;;;15.05;4.90;;;;;;;30.75;55.78;100196.22;10366362;28;20034;-72
2023/08/05 06:17:10;;;;;;;5.38;4.60;;;;;;;30.48;54.35;100121.13;10365547;28;20084;-73
2023/08/05 06:22:11;;;;;;;11.93;5.18;;;;;;;30.50;54.73;100103.56;10366057;28;20065;-72
2023/08/05 06:27:12;;;;;;;10.20;4.57;;;;;;;32.20;54.71;100338.22;10364565;28;20042;-74
2023/08/05 06:32:12;;;;;;;9.25;4.85;;;;;;;31.72;54.68;100250.91;10365565;28;20045;-73
2023/08/05 06:37:13;;;;;;;14.05;5.53;;;;;;;31.68;54.72;100204.03;10364860;28;20042;-73
2023/08/05 06:42:14;;;;;;;33.25;10.32;;;;;;;31.65;54.03;100204.66;10364545;28;20072;-73
2023/08/05 06:47:15;;;;;;;10.48;5.30;;;;;;;31.94;53.52;100239.13;10364598;28;20042;-74
2023/08/05 06:52:16;;;;;;;10.00;4.28;;;;;;;32.42;54.17;100285.16;10371911;28;20512;-72
2023/08/05 06:57:17;;;;;;;7.32;4.28;;;;;;;32.12;52.78;100207.88;10373049;28;20037;-72
2023/08/05 07:02:17;;;;;;;8.95;4.88;;;;;;;31.92;53.02;100153.47;10372710;28;20038;-73
2023/08/05 07:07:18;;;;;;;6.55;4.93;;;;;;;31.47;52.33;100071.97;10372437;28;20138;-72
2023/08/05 07:12:19;;;;;;;8.40;4.60;;;;;;;32.16;51.85;100170.41;10371977;28;20050;-74
2023/08/05 07:17:20;;;;;;;19.00;6.82;;;;;;;32.39;51.54;100175.81;10370706;28;20132;-72
2023/08/05 07:22:21;;;;;;;132.93;20.30;;;;;;;33.09;51.45;100245.63;10372106;28;20038;-72
2023/08/05 07:27:22;;;;;;;15.43;5.90;;;;;;;32.05;50.47;100050.91;10370914;28;20118;-72
2023/08/05 07:32:23;;;;;;;32.45;9.48;;;;;;;33.15;49.89;100203.88;10370846;28;20103;-73
2023/08/05 07:37:24;;;;;;;83.63;15.93;;;;;;;32.90;48.01;100130.31;10371022;28;20045;-73
2023/08/05 07:42:25;;;;;;;19.23;6.00;;;;;;;33.60;48.85;100225.59;10371427;28;20090;-73
2023/08/05 07:47:27;;;;;;;12.65;5.10;;;;;;;33.70;49.65;100179.56;10369693;28;20041;-74
2023/08/05 07:52:28;;;;;;;6.82;4.40;;;;;;;34.40;48.47;100249.88;10369912;28;20041;-74
2023/08/05 07:57:30;;;;;;;8.32;5.03;;;;;;;34.15;45.14;100201.19;10386740;28;20435;-74
2023/08/05 08:02:31;;;;;;;8.32;3.97;;;;;;;33.43;41.86;100030.06;10368924;28;20521;-74
2023/08/05 08:07:32;;;;;;;10.60;3.97;;;;;;;34.85;41.90;100205.25;10368925;28;20118;-73
2023/08/05 08:12:33;;;;;;;6.90;4.03;;;;;;;33.99;41.88;100049.31;10368653;28;20334;-75
2023/08/05 08:17:34;;;;;;;9.63;4.03;;;;;;;35.27;41.05;100245.88;10370145;28;20513;-77
2023/08/05 08:22:35;;;;;;;5.30;3.40;;;;;;;34.58;40.46;100145.81;10369352;28;20034;-76
2023/08/05 08:27:35;;;;;;;7.70;3.85;;;;;;;34.32;40.58;100060.50;10368861;28;20534;-78
2023/08/05 08:32:36;;;;;;;5.57;3.65;;;;;;;34.67;39.86;100093.34;10366734;28;20144;-77
2023/08/05 08:37:37;;;;;;;5.30;3.53;;;;;;;34.62;38.40;100096.34;10355297;28;20038;-75
2023/08/05 10:35:32;;;;;;;6.47;2.92;;;;;;;37.37;33.55;100107.41;10979993;23;20063;-76
2023/08/05 10:41:02;;;;;;;6.32;3.00;;;;;;;37.11;32.46;100067.13;10299139;28;20485;-75
2023/08/05 10:46:05;;;;;;;4.53;2.58;;;;;;;37.21;32.15;100099.84;10320519;28;20042;-75
2023/08/05 10:51:18;;;;;;;7.53;3.03;;;;;;;37.28;33.94;100095.69;10331144;28;20054;-76
2023/08/05 10:56:28;;;;;;;14.65;2.90;;;;;;;37.18;33.55;100053.47;10331120;28;20137;-75
2023/08/05 11:01:55;;;;;;;6.38;2.47;;;;;;;37.45;32.82;100071.22;10331258;28;20045;-73
2023/08/05 11:06:56;;;;;;;10.55;3.10;;;;;;;36.91;32.35;100059.81;10329880;28;20048;-75
2023/08/05 11:11:58;;;;;;;19.10;2.95;;;;;;;36.92;33.08;100039.28;10330013;28;20084;-77
2023/08/05 11:17:07;;;;;;;5.18;2.50;;;;;;;36.74;31.65;99994.50;10330967;28;20162;-77
2023/08/05 11:22:08;;;;;;;10.07;2.63;;;;;;;37.22;32.86;100039.75;10329916;28;20133;-79
2023/08/05 11:27:08;;;;;;;3.80;2.63;;;;;;;37.16;31.50;100019.81;10330359;28;20608;-77
2023/08/05 11:32:09;;;;;;;6.30;2.73;;;;;;;37.20;31.63;100044.81;10331504;28;20521;-77
2023/08/05 11:37:10;;;;;;;6.00;2.40;;;;;;;36.97;31.52;99972.56;10334017;28;20064;-80
2023/08/05 11:42:11;;;;;;;4.57;1.87;;;;;;;37.19;31.57;100015.53;10337730;28;20140;-78
2023/08/05 11:47:12;;;;;;;10.47;2.27;;;;;;;37.12;31.26;100018.88;10338810;28;20048;-75
2023/08/05 11:52:12;;;;;;;14.60;2.37;;;;;;;36.29;31.25;99905.09;10338167;28;20473;-79
2023/08/05 11:57:20;;;;;;;9.20;2.20;;;;;;;36.65;32.26;99949.59;10337157;28;20105;-83
2023/08/05 12:02:22;;;;;;;4.47;2.25;;;;;;;36.67;30.60;99942.50;10336998;28;20046;-73
2023/08/05 12:07:23;;;;;;;5.68;2.25;;;;;;;37.10;30.91;99990.75;10337258;28;20089;-72
2023/08/05 12:12:24;;;;;;;7.27;1.93;;;;;;;37.10;29.66;99973.34;10337774;28;20042;-73
2023/08/05 12:17:25;;;;;;;8.73;2.27;;;;;;;36.72;28.91;99941.47;10335450;28;20042;-68
2023/08/05 12:22:26;;;;;;;6.43;2.30;;;;;;;37.04;29.00;100008.81;10336765;28;20038;-67
2023/08/05 12:27:26;;;;;;;9.80;2.40;;;;;;;37.08;29.20;100011.66;10336559;28;20042;-69
2023/08/05 12:32:27;;;;;;;4.17;1.80;;;;;;;36.70;28.32;99963.94;10336405;28;20046;-71
2023/08/05 12:37:28;;;;;;;4.43;2.10;;;;;;;36.77;28.63;99974.41;10318037;28;20105;-73
2023/08/05 12:42:29;;;;;;;17.00;2.53;;;;;;;36.75;28.96;99983.06;10295753;28;20094;-72
2023/08/05 12:47:30;;;;;;;6.17;2.17;;;;;;;36.72;29.11;99986.53;10295470;28;20085;-72
2023/08/05 12:52:31;;;;;;;11.10;2.30;;;;;;;36.19;28.62;99877.13;10295520;28;20094;-72
2023/08/05 12:57:32;;;;;;;11.07;2.23;;;;;;;36.82;28.65;99993.53;10294776;28;20125;-82
2023/08/05 13:02:33;;;;;;;3.07;2.00;;;;;;;36.71;28.57;99971.09;10294755;28;20414;-75
2023/08/05 13:07:33;;;;;;;5.32;1.92;;;;;;;36.30;28.76;99917.75;10294126;28;20045;-85
2023/08/05 13:12:34;;;;;;;9.73;1.98;;;;;;;36.67;28.88;100008.13;10294537;28;20046;-81
2023/08/05 13:17:35;;;;;;;11.80;2.57;;;;;;;36.58;28.46;99988.91;10293235;28;20043;-82
2023/08/05 13:22:35;;;;;;;8.68;2.65;;;;;;;35.99;28.35;99901.00;10292192;28;20415;-79
2023/08/05 13:27:36;;;;;;;4.50;2.37;;;;;;;36.00;28.70;99917.25;10293903;28;20046;-80
2023/08/05 13:32:37;;;;;;;7.82;2.38;;;;;;;36.27;29.02;99962.69;10292712;28;20042;-80
2023/08/05 13:37:38;;;;;;;7.00;2.05;;;;;;;35.93;28.70;99933.63;10292370;28;20121;-78
2023/08/05 13:42:38;;;;;;;8.32;2.17;;;;;;;36.23;28.78;99983.94;10293273;28;20121;-80
2023/08/05 13:47:39;;;;;;;8.38;2.17;;;;;;;35.76;28.81;99907.03;10292932;28;20518;-76
2023/08/05 13:52:40;;;;;;;8.05;2.50;;;;;;;36.29;28.52;100004.66;10291753;28;20523;-83
2023/08/05 13:57:41;;;;;;;6.60;2.22;;;;;;;36.12;29.11;99988.31;10292625;28;20035;-77
2023/08/05 14:02:41;;;;;;;4.97;2.28;;;;;;;35.61;29.21;99916.06;10287711;28;20047;-80
2023/08/05 14:07:42;;;;;;;10.20;2.85;;;;;;;35.85;29.14;99970.47;10292383;28;20051;-79
2023/08/05 14:12:43;;;;;;;13.23;2.47;;;;;;;35.93;29.57;99988.06;10290617;28;20053;-79
2023/08/05 14:17:43;;;;;;;17.58;2.83;;;;;;;35.53;29.24;99947.31;10291548;28;20570;-83
2023/08/05 14:22:44;;;;;;;11.20;3.35;;;;;;;35.67;29.71;99989.25;10290267;28;20054;-80
2023/08/05 14:27:48;;;;;;;7.13;3.17;;;;;;;34.69;28.89;99856.59;10292522;28;20395;-77
2023/08/05 14:32:49;;;;;;;12.30;3.47;;;;;;;35.32;29.40;99967.56;10291889;28;20130;-78
2023/08/05 14:37:49;;;;;;;12.00;3.40;;;;;;;34.65;29.21;99880.50;10291024;28;20729;-84
2023/08/05 14:42:50;;;;;;;10.38;3.42;;;;;;;35.05;29.15;99951.66;10291795;28;20125;-80
2023/08/05 14:47:51;;;;;;;42.78;4.82;;;;;;;35.16;28.90;99994.25;10291156;28;20051;-81
2023/08/05 14:52:52;;;;;;;20.25;3.58;;;;;;;34.42;29.11;99899.34;10290126;28;20039;-86
2023/08/05 14:57:53;;;;;;;10.43;3.50;;;;;;;34.59;28.72;99940.59;10290828;28;20050;-85
2023/08/05 15:02:54;;;;;;;10.05;3.75;;;;;;;34.89;29.15;100015.75;10291455;28;20398;-85
2023/08/05 15:07:55;;;;;;;21.83;3.75;;;;;;;34.54;29.34;99966.41;10292536;28;20062;-87
2023/08/05 15:12:55;;;;;;;11.80;3.42;;;;;;;34.68;29.42;99995.69;10296951;28;20034;-84
2023/08/05 15:17:56;;;;;;;20.88;3.70;;;;;;;34.58;29.93;100010.66;10297254;28;20125;-83
2023/08/05 15:22:57;;;;;;;8.90;3.33;;;;;;;34.29;29.67;99981.19;10299486;28;20057;-84
2023/08/05 15:27:58;;;;;;;16.50;3.80;;;;;;;33.74;30.27;99913.28;10298810;28;20045;-82
2023/08/05 15:32:58;;;;;;;11.93;3.30;;;;;;;33.77;31.38;99949.25;10297740;28;20097;-87
2023/08/05 15:37:59;;;;;;;10.68;3.13;;;;;;;33.98;31.07;99998.88;10298356;28;20063;-83
2023/08/05 15:43:00;;;;;;;12.10;3.47;;;;;;;33.48;31.46;99957.50;10298516;28;20051;-86
2023/08/05 15:48:01;;;;;;;10.85;3.50;;;;;;;33.68;31.61;100002.78;10297366;28;20047;-79
2023/08/05 15:53:02;;;;;;;10.10;2.95;;;;;;;33.19;31.59;99962.59;10296022;28;20446;-83
2023/08/05 15:58:03;;;;;;;12.77;3.78;;;;;;;33.08;32.33;99966.84;10296988;28;20077;-82
2023/08/05 16:03:03;;;;;;;34.17;4.13;;;;;;;32.61;33.05;99935.69;10297842;28;20566;-84
2023/08/05 16:08:04;;;;;;;9.90;4.50;;;;;;;32.70;33.39;99989.56;10296966;28;20047;-81
2023/08/05 16:13:05;;;;;;;13.05;4.32;;;;;;;32.64;33.67;100010.09;10296919;28;20035;-87
2023/08/05 16:18:06;;;;;;;10.98;3.85;;;;;;;32.45;34.21;100004.91;10296555;28;20082;-84
2023/08/05 16:23:06;;;;;;;9.02;3.80;;;;;;;32.39;34.45;100030.09;10295319;28;20047;-85
2023/08/05 16:28:07;;;;;;;6.90;3.92;;;;;;;31.96;34.61;100003.38;10294655;28;20035;-82
2023/08/05 16:33:08;;;;;;;8.00;4.10;;;;;;;31.46;35.24;99935.00;10295657;28;20035;-82
2023/08/05 16:38:09;;;;;;;7.43;4.30;;;;;;;31.77;35.35;100009.06;10295277;28;20109;-81
2023/08/05 16:43:09;;;;;;;23.95;5.05;;;;;;;31.17;36.21;99922.59;10294233;28;20494;-85
2023/08/05 16:48:10;;;;;;;6.72;4.63;;;;;;;31.45;35.94;99985.56;10295144;28;20081;-80
2023/08/05 16:53:11;;;;;;;7.95;4.75;;;;;;;31.33;36.56;99994.34;10294962;28;20069;-81
2023/08/05 16:58:12;;;;;;;16.15;5.18;;;;;;;31.50;36.73;100051.28;10295140;28;20506;-83
2023/08/05 17:03:12;;;;;;;9.48;5.22;;;;;;;31.27;37.39;100045.81;10295566;28;20049;-80
2023/08/05 17:08:13;;;;;;;11.05;5.30;;;;;;;30.90;37.48;100003.94;10295343;28;20043;-80
2023/08/05 17:13:14;;;;;;;9.30;5.47;;;;;;;31.09;37.96;100049.56;10294731;28;20430;-83
2023/08/05 17:18:15;;;;;;;14.48;6.57;;;;;;;31.12;38.04;100076.38;10295166;28;20053;-81
2023/08/05 17:23:16;;;;;;;9.60;5.68;;;;;;;30.91;38.46;100065.91;10294837;28;20383;-82
2023/08/05 17:28:16;;;;;;;12.70;6.82;;;;;;;30.90;38.58;100077.16;10293499;28;20050;-88
2023/08/05 17:33:17;;;;;;;14.07;6.95;;;;;;;30.42;38.24;100000.94;10292619;28;20035;-88
2023/08/05 17:38:18;;;;;;;12.30;6.18;;;;;;;30.16;38.33;99973.28;10292062;28;20058;-83
2023/08/05 17:43:19;;;;;;;14.80;6.90;;;;;;;30.27;38.55;100004.03;10292827;28;20070;-87
2023/08/05 17:48:19;;;;;;;15.18;7.15;;;;;;;30.53;38.70;100065.38;10293420;28;20070;-88
2023/08/05 17:53:20;;;;;;;15.60;7.78;;;;;;;30.35;38.56;100047.13;10292637;28;20522;-87
2023/08/05 17:58:21;;;;;;;14.40;7.18;;;;;;;30.25;38.93;100039.97;10291778;28;20054;-85
2023/08/05 18:03:22;;;;;;;12.93;8.18;;;;;;;30.23;39.37;100055.88;10291555;28;20039;-83
2023/08/05 18:08:22;;;;;;;21.15;7.70;;;;;;;30.41;39.40;100087.03;10292579;28;20062;-88
2023/08/05 18:13:23;;;;;;;14.48;8.27;;;;;;;29.53;39.09;99948.25;10293152;28;20046;-85
2023/08/05 18:18:24;;;;;;;19.58;7.88;;;;;;;30.10;39.23;100048.47;10292639;28;20042;-87
2023/08/05 18:23:25;;;;;;;13.73;7.60;;;;;;;28.66;39.57;99850.59;10292302;28;20045;-82
2023/08/05 18:28:26;;;;;;;16.42;7.50;;;;;;;29.98;40.13;100068.16;10286536;28;20125;-84
2023/08/05 18:33:27;;;;;;;18.75;7.57;;;;;;;29.15;40.36;99946.81;10291727;28;20038;-85
2023/08/05 18:38:27;;;;;;;18.10;7.72;;;;;;;29.37;40.75;100007.13;10290616;28;20055;-78
2023/08/05 18:43:29;;;;;;;13.93;7.40;;;;;;;29.60;41.15;100071.03;10291556;28;20517;-79
2023/08/05 18:48:29;;;;;;;18.25;7.65;;;;;;;29.58;41.94;100095.13;10290569;28;20046;-77
2023/08/05 18:53:30;;;;;;;19.00;7.20;;;;;;;29.38;42.26;100074.44;10290536;28;20513;-79
2023/08/05 18:58:31;;;;;;;15.68;8.15;;;;;;;28.27;42.74;99911.84;10290901;28;20554;-78
2023/08/05 19:03:34;;;;;;;21.77;7.50;;;;;;;28.86;43.04;100018.91;10291725;28;20039;-78
2023/08/05 19:08:34;;;;;;;9.32;6.80;;;;;;;28.95;43.12;100054.59;10290357;28;20047;-78
2023/08/05 19:13:35;;;;;;;13.20;6.60;;;;;;;28.14;43.33;99940.69;10291115;28;20051;-80
2023/08/05 19:18:36;;;;;;;12.25;6.18;;;;;;;28.81;43.89;100055.34;10290709;28;20070;-85
2023/08/05 19:23:37;;;;;;;11.10;5.95;;;;;;;28.73;43.81;100052.47;10291090;28;20043;-86
2023/08/05 19:28:38;;;;;;;14.18;6.30;;;;;;;28.35;43.79;100000.50;10290911;28;20043;-85
2023/08/05 19:33:39;;;;;;;13.65;5.57;;;;;;;28.60;44.38;100056.75;10290568;28;20133;-82
2023/08/05 19:38:40;;;;;;;10.90;6.00;;;;;;;28.49;44.79;100061.53;10291126;28;20483;-85
2023/08/05 19:43:41;;;;;;;10.57;5.38;;;;;;;27.73;45.10;99968.50;10290978;28;20101;-82
2023/08/05 19:48:43;;;;;;;12.85;5.82;;;;;;;28.13;45.46;100036.59;10290423;28;20039;-83
2023/08/05 19:53:45;;;;;;;10.95;5.43;;;;;;;27.87;45.85;100015.03;10288070;28;20046;-83
2023/08/05 19:58:48;;;;;;;11.63;4.57;;;;;;;28.08;46.14;100045.63;10294721;28;20038;-87
2023/08/05 20:03:49;;;;;;;11.10;5.28;;;;;;;28.01;46.04;100042.47;10296333;28;20066;-82
2023/08/05 20:08:49;;;;;;;8.57;4.95;;;;;;;27.23;46.32;99948.06;10296251;28;20082;-78
2023/08/05 20:13:50;;;;;;;13.95;4.78;;;;;;;26.72;46.75;99853.94;10295687;28;20051;-79
2023/08/05 20:18:51;;;;;;;11.73;4.60;;;;;;;27.80;46.55;100044.59;10297332;28;20051;-76
2023/08/05 20:23:53;;;;;;;8.30;4.32;;;;;;;27.07;46.92;99926.38;10296133;28;20046;-76
2023/08/05 20:28:54;;;;;;;11.32;4.50;;;;;;;27.62;47.20;100031.69;10296906;28;20174;-76
2023/08/05 20:33:55;;;;;;;13.70;4.20;;;;;;;26.74;47.34;99908.13;10295499;28;20051;-76
2023/08/05 20:38:56;;;;;;;8.75;3.85;;;;;;;26.88;47.61;99941.00;10296223;28;20055;-76
2023/08/05 20:43:57;;;;;;;8.73;3.85;;;;;;;27.27;47.81;100004.44;10295901;28;20133;-75
2023/08/05 20:48:58;;;;;;;9.15;4.18;;;;;;;27.28;48.37;100021.63;10295992;28;20602;-76
2023/08/05 20:53:58;;;;;;;11.23;3.83;;;;;;;27.17;48.44;100018.19;10294673;28;20053;-76
2023/08/05 20:59:00;;;;;;;6.70;4.03;;;;;;;26.96;49.35;100008.53;10295347;28;20039;-76
2023/08/05 21:04:01;;;;;;;9.30;3.50;;;;;;;26.64;49.37;99969.78;10294563;28;20058;-76
2023/08/05 21:09:02;;;;;;;6.55;3.00;;;;;;;26.66;50.07;100002.22;10294332;28;20042;-75
2023/08/05 21:14:03;;;;;;;8.10;3.25;;;;;;;26.66;50.13;99999.50;10294918;28;20047;-76
2023/08/05 21:19:05;;;;;;;9.90;3.10;;;;;;;26.30;49.99;99947.94;10294243;28;20050;-76
2023/08/05 21:24:05;;;;;;;6.55;2.95;;;;;;;26.51;50.63;99980.53;10294504;28;20046;-76
2023/08/05 21:29:06;;;;;;;10.07;2.95;;;;;;;26.50;51.42;100000.66;10293451;28;20047;-76
2023/08/05 21:34:07;;;;;;;5.10;2.90;;;;;;;26.08;51.35;99936.63;10293518;28;20049;-76
2023/08/05 21:39:08;;;;;;;7.60;3.00;;;;;;;26.33;51.52;99999.13;10293995;28;20058;-75
2023/08/05 21:44:08;;;;;;;9.15;3.00;;;;;;;26.10;52.12;99975.28;10293050;28;20043;-76
2023/08/05 21:49:09;;;;;;;8.48;2.75;;;;;;;26.05;51.97;99984.28;10292747;28;20035;-76
2023/08/05 21:54:10;;;;;;;9.55;3.17;;;;;;;25.93;52.33;99976.44;10292949;28;20042;-76
2023/08/05 21:59:11;;;;;;;11.77;3.05;;;;;;;25.63;54.30;99952.84;10292530;28;20415;-75
2023/08/05 22:04:12;;;;;;;9.70;3.30;;;;;;;25.76;54.55;99994.16;10292280;28;20039;-76
2023/08/05 22:09:12;;;;;;;8.20;3.42;;;;;;;25.68;55.57;99996.38;10292766;28;20034;-76
2023/08/05 22:14:13;;;;;;;6.95;3.05;;;;;;;25.65;55.39;100001.53;10292203;28;20137;-76
2023/08/05 22:19:14;;;;;;;7.32;2.83;;;;;;;25.40;55.53;99983.41;10291392;28;20102;-75
2023/08/05 22:24:14;;;;;;;10.80;3.08;;;;;;;25.26;57.04;99985.84;10290469;28;20419;-76
2023/08/05 22:29:15;;;;;;;10.07;3.00;;;;;;;24.76;57.34;99912.22;10291771;28;20097;-76
2023/08/05 22:34:16;;;;;;;9.85;3.38;;;;;;;24.51;58.46;99918.47;10291214;28;20043;-75
2023/08/05 22:39:17;;;;;;;10.75;3.38;;;;;;;24.66;59.12;99982.03;10292538;28;20082;-75
2023/08/05 22:44:17;;;;;;;11.45;3.10;;;;;;;24.34;60.13;99964.03;10291024;28;20050;-75
2023/08/05 22:49:18;;;;;;;15.00;3.53;;;;;;;24.41;60.92;99988.19;10291733;28;20100;-76
2023/08/05 22:54:19;;;;;;;6.82;3.10;;;;;;;24.10;61.86;99974.53;10291200;28;20050;-75
2023/08/05 22:59:20;;;;;;;8.75;3.33;;;;;;;23.80;63.07;99969.81;10292398;28;20066;-75
2023/08/05 23:04:23;;;;;;;8.63;3.30;;;;;;;23.74;64.01;99968.97;10291408;28;20069;-75
2023/08/05 23:09:24;;;;;;;5.85;2.75;;;;;;;23.23;64.29;99909.03;10290752;28;20157;-75
2023/08/05 23:14:24;;;;;;;9.35;3.13;;;;;;;23.41;65.63;99967.41;10289507;28;20066;-76
2023/08/05 23:19:25;;;;;;;10.63;3.47;;;;;;;23.34;66.29;99980.38;10291686;28;20522;-75
2023/08/05 23:24:26;;;;;;;12.40;3.42;;;;;;;22.90;67.55;99926.41;10290363;28;20043;-75
2023/08/05 23:29:27;;;;;;;9.52;3.28;;;;;;;23.13;68.51;99963.19;10289176;28;20065;-75
2023/08/05 23:34:27;;;;;;;12.18;3.40;;;;;;;23.15;67.35;99950.16;10295012;28;20038;-75
2023/08/05 23:39:28;;;;;;;8.73;3.00;;;;;;;23.31;66.18;99954.63;10298256;28;20074;-75
2023/08/05 23:44:29;;;;;;;4.85;2.80;;;;;;;23.30;66.29;99954.88;10297464;28;20061;-75
2023/08/05 23:49:29;;;;;;;9.68;3.10;;;;;;;22.97;66.13;99891.78;10298057;28;20491;-75
2023/08/05 23:54:30;;;;;;;5.88;2.50;;;;;;;23.02;63.19;99856.63;10296285;28;20047;-75
2023/08/05 23:59:31;;;;;;;16.15;3.33;;;;;;;23.31;61.81;99886.88;10297286;28;20049;-75
